METAR Data
IDs: Format: Raw Decoded Include TAF

Data at: 0315 UTC 25 Feb 2021

ZGSZ 250300Z 14002MPS 100V190 9999 VCSH FEW020 FEW030CB BKN050 23/16 Q1013 NOSIG